Powell River, British Columbia

Past 24 Hour Conditions

This table is a summary of hourly weather conditions for the past 24 hours. This summary includes the following parameters: temperature, humidity, dew point, wind speed and direction, air pressure, visibility and/or wind chill and humidex.
Date / Time
(PDT)
Conditions Temp (°F) Humidity (%) Dew Point (°F) Wind (mph) Pressure (inches) Visibility (miles)
31 August 2014
1:00 N/A 57   94 55 N/A 29.9 N/A
00:00 N/A 57   93 55 N/A 29.9 N/A
30 August 2014
23:00 N/A 57   91 55 N/A 29.9 N/A
22:00 N/A 58 90 55 N/A 29.9 N/A
21:00 N/A 59 85 55 N/A 29.9 N/A
20:00 N/A 60 87 56 N/A 29.9 N/A
19:00 N/A 63 77 55 N/A 29.9 N/A
18:00 N/A 64 74 55 N/A 29.9 N/A
17:00 N/A 65 72 56 N/A 29.9 N/A
16:00 N/A 66 64 53 N/A 29.9 N/A
15:00 N/A 67 61 53 N/A 29.9 N/A
14:00 N/A 68 60 53 N/A 29.9 N/A
13:00 N/A 69   57 53 N/A 29.9 N/A
12:00 N/A 68 59 53 N/A 29.9 N/A
11:00 N/A 65 66 54 N/A 29.9 N/A
10:00 N/A 63 79 56 N/A 29.9 N/A
9:00 N/A 60 88 57 N/A 29.9 N/A
8:00 N/A 60 88 56 N/A 29.9 N/A
7:00 N/A 59 92 56 N/A 29.9 N/A
6:00 N/A 60 86 55 N/A 29.9 N/A
5:00 N/A 60 86 56 N/A 29.9 N/A
4:00 N/A 60 85 55 N/A 29.9 N/A
3:00 N/A 60 84 55 N/A 29.9 N/A
2:00 N/A 60 83 55 N/A 29.9 N/A
1:00 N/A 60 79 54 N/A 29.9 N/A
N/A
Not available
 ↑ 
Highest temperature
 ↓ 
Lowest temperature

If you require additional historical weather information, please visit Climate Data Online.